Time;durP1;ratioP1;P1;durP2;ratioP2;P2;SDS_P1;SDS_P2;PMS_P1;PMS_P2;Temp;Humidity;BMP_temperature;BMP_pressure;BME280_temperature;BME280_humidity;BME280_pressure;Samples;Min_cycle;Max_cycle;Signal;HPM_P1;HPM_P2
2020/12/01 03:46:28;;;;;;;122.97;53.30;;;3.00;81.50;;;;;;5789692;23;20045;-78
2020/12/01 03:48:54;;;;;;;120.75;54.28;;;3.00;81.40;;;;;;4895693;29;20060;-78
2020/12/01 03:51:19;;;;;;;117.53;51.65;;;3.20;81.10;;;;;;4895443;29;20038;-78
2020/12/01 03:53:45;;;;;;;102.97;48.85;;;3.20;80.90;;;;;;4912175;29;20335;-78
2020/12/01 03:56:11;;;;;;;123.90;52.47;;;3.20;81.00;;;;;;4883668;29;20021;-78
2020/12/01 03:58:36;;;;;;;122.05;50.35;;;3.30;80.80;;;;;;4892345;29;20069;-78
2020/12/01 04:01:02;;;;;;;113.43;51.03;;;3.30;80.60;;;;;;4901011;29;20025;-78
2020/12/01 04:03:27;;;;;;;107.63;48.90;;;3.10;80.70;;;;;;4895095;29;20112;-78
2020/12/01 04:05:53;;;;;;;122.38;52.53;;;3.20;80.90;;;;;;4895261;29;20028;-78
2020/12/01 04:08:19;;;;;;;110.82;49.67;;;3.30;81.00;;;;;;4894686;29;20059;-78
2020/12/01 04:10:45;;;;;;;120.97;52.53;;;3.30;80.80;;;;;;4894513;29;20300;-78
2020/12/01 04:13:10;;;;;;;116.65;51.47;;;3.30;80.60;;;;;;4895120;29;20025;-78
2020/12/01 04:15:36;;;;;;;111.53;50.08;;;3.30;80.40;;;;;;4894692;29;20028;-80
2020/12/01 04:18:02;;;;;;;120.95;51.55;;;3.30;80.60;;;;;;4894443;29;20376;-78
2020/12/01 04:20:27;;;;;;;103.18;48.63;;;3.30;80.60;;;;;;4894533;29;20498;-78
2020/12/01 04:22:54;;;;;;;100.75;48.03;;;3.30;80.40;;;;;;4894865;29;20087;-78
2020/12/01 04:25:23;;;;;;;109.95;49.72;;;3.30;80.40;;;;;;4910854;29;20087;-78
2020/12/01 04:27:49;;;;;;;110.10;49.45;;;3.30;80.60;;;;;;4894351;29;20026;-77
2020/12/01 04:30:16;;;;;;;122.90;52.50;;;3.40;80.30;;;;;;4910772;29;20021;-78
2020/12/01 04:32:41;;;;;;;99.15;47.05;;;3.50;80.10;;;;;;4910800;29;20029;-78
2020/12/01 04:35:07;;;;;;;121.53;53.72;;;3.50;79.70;;;;;;4893785;29;20223;-77
2020/12/01 04:37:33;;;;;;;105.72;47.38;;;3.50;79.60;;;;;;4893571;29;20072;-78
2020/12/01 04:39:59;;;;;;;106.22;49.03;;;3.50;79.50;;;;;;4910485;29;20035;-77
2020/12/01 04:42:25;;;;;;;97.32;46.55;;;3.50;79.60;;;;;;4893676;29;20021;-77
2020/12/01 04:45:00;;;;;;;106.03;47.72;;;3.60;79.50;;;;;;4910686;29;20024;-78
2020/12/01 04:47:45;;;;;;;98.05;47.40;;;3.60;79.40;;;;;;4909960;29;20088;-78
2020/12/01 04:50:16;;;;;;;105.88;48.35;;;3.50;79.30;;;;;;4893548;29;20338;-77
2020/12/01 04:53:14;;;;;;;98.38;47.20;;;3.50;79.50;;;;;;4893684;29;20032;-78
2020/12/01 04:56:17;;;;;;;100.47;48.95;;;3.40;79.80;;;;;;4893302;29;20028;-77
2020/12/01 04:58:58;;;;;;;97.43;46.20;;;3.40;79.90;;;;;;4893628;29;20041;-77
2020/12/01 05:01:54;;;;;;;107.68;49.47;;;3.50;79.60;;;;;;4910797;29;20063;-78
2020/12/01 05:04:31;;;;;;;101.10;48.53;;;3.50;79.50;;;;;;4893605;29;20043;-78
2020/12/01 05:07:35;;;;;;;98.00;45.30;;;3.60;79.20;;;;;;4910413;29;20031;-78
2020/12/01 05:10:08;;;;;;;107.05;48.83;;;3.40;79.50;;;;;;4893270;29;20349;-78
2020/12/01 05:12:39;;;;;;;99.82;45.85;;;3.30;79.80;;;;;;4910039;29;20020;-78
2020/12/01 05:15:22;;;;;;;101.68;48.25;;;3.40;80.10;;;;;;4910009;29;20052;-78
2020/12/01 05:18:18;;;;;;;106.25;46.08;;;3.50;79.80;;;;;;4893239;29;20212;-78
2020/12/01 05:20:58;;;;;;;95.00;44.67;;;3.60;79.40;;;;;;4909251;29;20080;-79
2020/12/01 05:23:32;;;;;;;92.95;45.08;;;3.50;79.30;;;;;;4893113;29;20012;-77
2020/12/01 05:26:00;;;;;;;93.18;45.95;;;3.50;79.30;;;;;;4892800;29;20020;-78
2020/12/01 05:28:26;;;;;;;99.03;46.90;;;3.50;79.20;;;;;;4892953;29;20024;-78
2020/12/01 05:31:01;;;;;;;97.10;45.13;;;3.50;79.40;;;;;;4893173;29;20068;-77
2020/12/01 05:33:30;;;;;;;100.45;45.03;;;3.50;79.40;;;;;;4893275;29;20024;-78
2020/12/01 05:36:01;;;;;;;99.75;46.35;;;3.30;79.50;;;;;;4892979;29;20047;-77
2020/12/01 05:38:27;;;;;;;96.80;45.95;;;3.40;79.50;;;;;;4892968;29;20021;-77
2020/12/01 05:41:14;;;;;;;92.23;46.00;;;3.50;79.20;;;;;;4909367;29;20025;-77
2020/12/01 05:43:40;;;;;;;91.35;45.03;;;3.50;78.80;;;;;;4893078;29;20087;-78
2020/12/01 05:46:36;;;;;;;92.63;44.17;;;3.50;78.90;;;;;;4893813;29;20028;-78
2020/12/01 05:49:03;;;;;;;94.70;46.05;;;3.40;79.10;;;;;;4876262;29;20047;-78
2020/12/01 05:51:45;;;;;;;99.40;47.50;;;3.50;79.10;;;;;;4880742;29;20023;-77
2020/12/01 05:54:34;;;;;;;103.82;47.47;;;3.40;79.10;;;;;;4906093;29;20193;-79
2020/12/01 05:57:00;;;;;;;100.40;45.17;;;3.50;79.30;;;;;;4885365;29;20324;-78
2020/12/01 05:59:26;;;;;;;106.55;49.30;;;3.50;79.00;;;;;;4892530;29;20031;-78
2020/12/01 06:02:02;;;;;;;93.25;46.05;;;3.50;79.20;;;;;;4893058;29;20031;-78
2020/12/01 06:04:27;;;;;;;98.80;46.45;;;3.50;78.90;;;;;;4886679;29;20023;-78
2020/12/01 06:06:58;;;;;;;93.32;46.92;;;3.50;79.10;;;;;;4875572;29;20056;-78
2020/12/01 06:09:32;;;;;;;106.15;47.22;;;3.40;79.20;;;;;;4902353;29;20346;-79
2020/12/01 06:12:08;;;;;;;96.68;45.60;;;3.40;79.10;;;;;;4892188;29;20020;-77
2020/12/01 06:14:40;;;;;;;95.25;46.60;;;3.30;79.10;;;;;;4891978;29;20369;-77
2020/12/01 06:17:15;;;;;;;100.78;44.90;;;3.40;79.10;;;;;;4891005;29;20076;-77
2020/12/01 06:20:02;;;;;;;96.93;46.78;;;3.40;79.10;;;;;;4900693;29;20017;-77
2020/12/01 06:23:04;;;;;;;93.00;46.17;;;3.20;79.20;;;;;;4906394;29;20125;-78
2020/12/01 06:25:48;;;;;;;100.22;46.90;;;3.30;79.20;;;;;;4893078;29;20032;-78
2020/12/01 06:28:41;;;;;;;89.90;42.50;;;3.20;79.20;;;;;;4906564;29;20088;-78
2020/12/01 06:31:48;;;;;;;88.45;43.53;;;3.00;79.80;;;;;;4906994;29;20021;-78
2020/12/01 06:34:43;;;;;;;98.18;46.45;;;3.10;79.90;;;;;;4840502;29;20022;-78
2020/12/01 06:37:12;;;;;;;94.78;43.92;;;3.20;79.70;;;;;;4830286;29;20041;-78
2020/12/01 06:40:02;;;;;;;98.13;44.15;;;3.10;79.60;;;;;;4822174;29;20238;-78
2020/12/01 06:42:39;;;;;;;98.28;44.05;;;3.10;79.80;;;;;;4840411;29;20030;-78
2020/12/01 06:45:23;;;;;;;101.40;46.70;;;3.10;79.80;;;;;;4855563;29;20029;-78
2020/12/01 06:47:52;;;;;;;106.90;48.55;;;2.90;80.50;;;;;;4850434;29;20050;-78
2020/12/01 06:50:20;;;;;;;104.93;51.38;;;3.00;80.60;;;;;;4830891;29;20301;-78
2020/12/01 06:52:57;;;;;;;107.47;48.63;;;3.10;81.20;;;;;;4837640;29;20049;-78
2020/12/01 06:55:40;;;;;;;102.65;46.70;;;3.10;80.10;;;;;;4840286;29;20034;-78
2020/12/01 06:58:20;;;;;;;88.40;43.25;;;3.10;80.20;;;;;;4831441;29;20057;-78
2020/12/01 07:00:45;;;;;;;99.15;47.17;;;3.10;79.60;;;;;;4828669;29;20400;-77
2020/12/01 07:03:20;;;;;;;97.72;46.88;;;3.20;79.80;;;;;;4832222;29;20033;-78
2020/12/01 07:05:46;;;;;;;98.15;44.30;;;3.20;80.00;;;;;;4846508;29;20089;-78
2020/12/01 07:08:14;;;;;;;101.70;46.20;;;3.30;79.90;;;;;;4869748;29;20033;-79
2020/12/01 07:10:40;;;;;;;93.97;42.75;;;3.40;79.70;;;;;;4892684;29;20020;-77
2020/12/01 07:13:21;;;;;;;94.07;45.67;;;3.30;79.30;;;;;;4876277;29;20021;-77
2020/12/01 07:18:29;;;;;;;92.32;45.13;;;3.20;79.30;;;;;;5222285;23;19923;-78
2020/12/01 07:21:38;;;;;;;90.75;44.83;;;3.30;79.10;;;;;;4929652;29;20326;-78
2020/12/01 07:24:19;;;;;;;101.43;45.92;;;3.20;79.50;;;;;;4912060;29;20051;-78
2020/12/01 07:26:55;;;;;;;87.20;43.47;;;3.20;79.70;;;;;;4917907;29;20025;-78
2020/12/01 07:30:00;;;;;;;88.80;43.70;;;3.30;80.10;;;;;;4911994;29;20047;-78
2020/12/01 07:32:50;;;;;;;88.75;42.75;;;3.20;79.20;;;;;;4911766;29;20017;-77
2020/12/01 07:35:43;;;;;;;95.13;44.28;;;3.30;79.20;;;;;;4910377;29;20076;-78
2020/12/01 07:38:21;;;;;;;94.45;46.00;;;3.30;78.80;;;;;;4911663;29;20308;-78
2020/12/01 07:40:50;;;;;;;99.70;44.17;;;3.20;79.20;;;;;;4911600;29;20033;-77
2020/12/01 07:43:18;;;;;;;88.43;43.95;;;3.30;79.00;;;;;;4909522;29;20031;-77
2020/12/01 07:45:44;;;;;;;99.82;44.92;;;3.40;79.00;;;;;;4910181;29;20028;-77
2020/12/01 07:48:20;;;;;;;91.97;43.45;;;3.20;79.30;;;;;;4905612;29;20059;-77
2020/12/01 07:50:46;;;;;;;86.95;42.45;;;3.10;79.60;;;;;;4891237;29;20028;-77
2020/12/01 07:53:20;;;;;;;92.30;42.50;;;3.20;79.80;;;;;;4892602;29;20240;-78
2020/12/01 07:56:00;;;;;;;94.95;45.15;;;3.10;79.90;;;;;;4892326;29;20029;-77
2020/12/01 07:58:28;;;;;;;82.53;40.50;;;3.20;79.60;;;;;;4892458;29;20367;-78
2020/12/01 08:00:53;;;;;;;88.95;41.70;;;3.20;79.50;;;;;;4918274;29;20043;-77
2020/12/01 08:03:38;;;;;;;92.97;44.15;;;3.20;79.20;;;;;;4928828;29;20032;-77
2020/12/01 08:06:11;;;;;;;102.63;44.67;;;3.30;79.60;;;;;;4929655;29;20016;-77
2020/12/01 08:08:39;;;;;;;90.43;41.60;;;3.20;80.00;;;;;;4928749;29;20044;-78
2020/12/01 08:11:08;;;;;;;94.95;41.65;;;3.30;79.80;;;;;;4928712;29;20028;-78
2020/12/01 08:13:36;;;;;;;90.10;43.60;;;3.20;79.40;;;;;;4928549;29;20151;-77
2020/12/01 08:16:28;;;;;;;95.05;44.72;;;3.40;79.70;;;;;;4928695;29;20405;-78
2020/12/01 08:18:54;;;;;;;96.70;44.60;;;3.50;79.60;;;;;;4890136;29;20049;-78
2020/12/01 08:21:34;;;;;;;87.22;41.95;;;3.50;79.50;;;;;;4881385;29;20029;-78
2020/12/01 08:24:04;;;;;;;92.80;42.33;;;3.60;78.90;;;;;;4871295;29;20052;-78
2020/12/01 08:26:34;;;;;;;86.30;41.03;;;3.70;78.40;;;;;;4871423;29;20033;-78
2020/12/01 08:29:08;;;;;;;84.68;42.30;;;3.60;78.90;;;;;;4852467;29;20257;-78
2020/12/01 08:31:40;;;;;;;95.63;43.95;;;3.60;78.30;;;;;;4860689;29;20024;-78
2020/12/01 08:34:12;;;;;;;88.75;43.65;;;3.50;78.50;;;;;;4856358;29;20033;-78
2020/12/01 08:36:55;;;;;;;96.57;45.30;;;3.60;78.90;;;;;;4870097;29;20089;-78
2020/12/01 08:39:50;;;;;;;93.90;42.78;;;3.60;78.70;;;;;;4871252;29;20029;-78
2020/12/01 08:42:21;;;;;;;96.45;43.45;;;3.80;78.60;;;;;;4868893;29;20029;-78
2020/12/01 08:45:02;;;;;;;86.85;41.50;;;3.80;78.30;;;;;;4852591;29;20033;-78
2020/12/01 08:47:29;;;;;;;93.70;43.63;;;3.90;78.50;;;;;;4841201;29;20097;-78
2020/12/01 08:49:54;;;;;;;88.10;43.08;;;3.90;78.20;;;;;;4863456;29;20041;-78
2020/12/01 08:52:39;;;;;;;88.57;40.75;;;4.00;77.70;;;;;;4868842;29;20122;-78
2020/12/01 08:57:38;;;;;;;87.65;41.75;;;4.10;77.10;;;;;;4910674;29;20040;-78
2020/12/01 09:00:16;;;;;;;94.93;44.10;;;3.90;76.90;;;;;;4897490;29;20055;-79
2020/12/01 09:02:44;;;;;;;84.75;39.88;;;4.00;77.10;;;;;;4896130;29;20024;-78
2020/12/01 09:05:29;;;;;;;83.45;40.03;;;4.00;77.10;;;;;;4890336;29;20032;-80
2020/12/01 09:14:02;;;;;;;83.32;39.92;;;4.00;77.10;;;;;;4914449;29;21359;-79
2020/12/01 09:22:12;;;;;;;90.82;41.28;;;4.00;77.60;;;;;;4880543;29;19908;-78
2020/12/01 09:24:38;;;;;;;83.15;40.35;;;3.80;77.30;;;;;;4864130;29;20121;-78
2020/12/01 09:27:10;;;;;;;88.18;40.53;;;3.90;77.60;;;;;;4876704;29;20105;-78
2020/12/01 09:29:37;;;;;;;91.45;40.95;;;3.80;77.60;;;;;;4876915;29;20133;-77
2020/12/01 09:32:06;;;;;;;86.88;40.85;;;4.00;77.20;;;;;;4877640;29;20033;-72
2020/12/01 09:34:35;;;;;;;83.82;40.85;;;4.00;77.50;;;;;;4874401;29;20037;-72
2020/12/01 09:37:02;;;;;;;85.53;40.75;;;4.00;77.50;;;;;;4875996;29;20033;-73
2020/12/01 09:39:30;;;;;;;87.45;40.28;;;4.00;76.80;;;;;;4871807;29;20044;-72
2020/12/01 09:42:10;;;;;;;87.13;41.30;;;4.10;76.90;;;;;;4874218;29;20068;-73
2020/12/01 09:47:13;;;;;;;87.35;41.88;;;4.20;76.50;;;;;;4874631;29;20296;-73
2020/12/01 09:52:19;;;;;;;93.03;41.85;;;4.20;76.80;;;;;;4947784;23;20382;-73
2020/12/01 09:57:23;;;;;;;90.95;42.35;;;4.10;77.50;;;;;;4903542;29;20290;-73
2020/12/01 10:00:20;;;;;;;99.85;41.05;;;4.10;77.40;;;;;;4884451;29;20032;-74
2020/12/01 10:08:15;;;;;;;106.30;42.65;;;4.10;77.10;;;;;;4905474;29;20167;-79
2020/12/01 13:11:36;;;;;;;66.53;35.45;;;5.40;72.30;;;;;;5032278;23;19919;-79
2020/12/01 13:14:02;;;;;;;64.15;31.83;;;5.60;72.40;;;;;;4929363;29;20028;-79
2020/12/01 13:16:28;;;;;;;72.60;33.63;;;5.50;71.70;;;;;;4912487;29;20230;-79
2020/12/01 13:18:53;;;;;;;65.68;32.78;;;5.40;72.30;;;;;;4894041;29;20028;-79
2020/12/01 13:21:19;;;;;;;61.45;32.40;;;5.50;72.10;;;;;;4912492;29;20024;-79
2020/12/01 13:23:45;;;;;;;61.95;32.75;;;5.70;71.70;;;;;;4909019;29;20025;-79
2020/12/01 13:26:10;;;;;;;67.78;36.15;;;5.80;71.20;;;;;;4910995;29;20072;-80
2020/12/01 13:28:36;;;;;;;62.55;33.08;;;5.90;71.00;;;;;;4912673;29;20039;-80
2020/12/01 13:31:02;;;;;;;73.05;35.13;;;5.90;70.40;;;;;;4912862;29;20043;-79
2020/12/01 13:33:28;;;;;;;71.22;36.40;;;5.90;70.50;;;;;;4902841;29;20065;-79
2020/12/01 13:35:53;;;;;;;63.67;34.22;;;5.90;70.30;;;;;;4909879;29;20122;-79
2020/12/01 13:38:19;;;;;;;63.88;34.20;;;5.70;70.50;;;;;;4913062;29;20111;-79
2020/12/01 13:40:45;;;;;;;76.78;36.17;;;5.70;71.00;;;;;;4896336;29;20027;-79
2020/12/01 13:43:12;;;;;;;65.78;34.85;;;5.70;71.50;;;;;;4896751;29;20330;-77
2020/12/01 13:45:38;;;;;;;64.32;34.95;;;5.60;71.50;;;;;;4897986;29;20048;-80
2020/12/01 13:48:03;;;;;;;58.45;33.33;;;5.70;71.50;;;;;;5159318;23;20041;-78
2020/12/01 13:50:30;;;;;;;72.10;36.67;;;5.40;72.30;;;;;;4944781;29;20326;-74
2020/12/01 13:52:56;;;;;;;74.10;35.33;;;5.40;72.40;;;;;;4932472;29;20094;-80
2020/12/01 13:55:23;;;;;;;76.18;37.08;;;5.60;72.50;;;;;;4935202;29;20028;-79
2020/12/01 13:57:48;;;;;;;71.97;35.13;;;5.50;72.40;;;;;;4952735;29;20388;-78
2020/12/01 14:00:23;;;;;;;70.93;34.38;;;5.50;72.70;;;;;;4936680;29;20022;-79
2020/12/01 14:02:49;;;;;;;61.78;33.85;;;5.50;72.80;;;;;;4937981;29;20023;-80
2020/12/01 14:05:15;;;;;;;65.32;35.58;;;5.60;72.70;;;;;;4936762;29;20070;-80
2020/12/01 14:10:16;;;;;;;66.15;34.20;;;5.60;72.40;;;;;;5081198;23;20051;-79
2020/12/01 14:12:42;;;;;;;61.25;33.08;;;5.50;73.10;;;;;;4945670;29;20030;-79
2020/12/01 14:15:09;;;;;;;62.70;33.40;;;5.60;72.90;;;;;;4948683;29;20024;-79
2020/12/01 14:17:35;;;;;;;66.50;35.60;;;5.60;72.40;;;;;;4929193;29;20030;-79
2020/12/01 14:20:03;;;;;;;60.92;31.42;;;5.70;72.50;;;;;;4943899;29;20027;-79
2020/12/01 14:22:28;;;;;;;62.58;32.83;;;5.70;72.20;;;;;;4946185;29;20345;-79
2020/12/01 14:24:54;;;;;;;61.25;31.40;;;5.70;71.80;;;;;;4929126;29;20031;-79
2020/12/01 14:27:20;;;;;;;64.60;33.42;;;5.80;71.90;;;;;;4929451;29;20027;-79
2020/12/01 14:29:46;;;;;;;57.28;30.15;;;5.80;71.80;;;;;;4928240;29;20091;-79
2020/12/01 14:32:12;;;;;;;63.53;30.13;;;5.80;71.30;;;;;;4928906;29;20034;-79
2020/12/01 14:34:38;;;;;;;53.70;28.77;;;5.80;71.00;;;;;;4928589;29;20020;-79
2020/12/01 14:37:07;;;;;;;54.95;30.08;;;5.80;70.70;;;;;;4929056;29;20393;-78
2020/12/01 14:39:34;;;;;;;53.50;27.98;;;5.70;71.00;;;;;;4925076;29;20016;-78
2020/12/01 14:42:06;;;;;;;47.85;26.08;;;5.70;70.60;;;;;;4928448;29;20098;-78
2020/12/01 14:47:25;;;;;;;55.85;28.40;;;5.50;71.00;;;;;;4924083;29;20044;-78
2020/12/01 14:50:19;;;;;;;61.17;29.58;;;5.40;71.30;;;;;;4908081;29;20311;-78
2020/12/01 14:53:00;;;;;;;56.17;29.35;;;5.60;71.10;;;;;;4909170;29;20028;-78
2020/12/01 14:58:17;;;;;;;55.70;29.65;;;5.50;70.80;;;;;;4934451;29;20048;-79
2020/12/01 15:01:08;;;;;;;53.40;29.00;;;5.60;70.70;;;;;;4922079;29;20012;-79
2020/12/01 15:04:18;;;;;;;50.90;28.10;;;5.70;70.50;;;;;;4917135;29;20088;-79
2020/12/01 15:06:53;;;;;;;54.80;28.00;;;5.60;70.20;;;;;;4918969;29;20023;-78
2020/12/01 15:09:31;;;;;;;49.75;27.85;;;5.40;70.60;;;;;;4918205;29;20247;-79
2020/12/01 15:12:21;;;;;;;54.47;29.05;;;5.40;71.00;;;;;;4918870;29;20032;-79
2020/12/01 15:14:48;;;;;;;53.80;28.83;;;5.10;71.60;;;;;;4937398;29;20020;-79
2020/12/01 15:17:16;;;;;;;53.53;28.55;;;5.20;71.80;;;;;;4904967;29;20037;-78
2020/12/01 15:19:42;;;;;;;71.03;32.45;;;5.20;71.60;;;;;;4926286;29;20099;-78
2020/12/01 15:22:14;;;;;;;81.53;37.58;;;5.20;71.40;;;;;;4917769;29;20031;-79
2020/12/01 15:24:41;;;;;;;69.78;32.72;;;5.30;71.40;;;;;;4920477;29;20333;-79
2020/12/01 15:27:15;;;;;;;68.88;36.63;;;5.30;71.30;;;;;;4931803;29;20116;-79
2020/12/01 15:29:44;;;;;;;79.53;37.67;;;5.20;71.80;;;;;;4916115;29;20084;-79
2020/12/01 15:32:10;;;;;;;82.95;37.58;;;5.20;71.70;;;;;;4927322;29;20212;-79
2020/12/01 15:34:36;;;;;;;90.63;40.70;;;5.20;71.70;;;;;;4915269;29;20025;-79
2020/12/01 15:37:05;;;;;;;107.53;44.92;;;5.20;71.60;;;;;;4914808;29;20029;-78
2020/12/01 15:39:32;;;;;;;64.65;34.58;;;5.30;71.30;;;;;;4922085;29;20027;-79
2020/12/01 15:42:02;;;;;;;67.05;33.92;;;5.40;70.90;;;;;;4916651;29;20048;-79
2020/12/01 15:44:30;;;;;;;74.65;37.03;;;5.20;71.10;;;;;;4921842;29;20019;-79
2020/12/01 15:47:06;;;;;;;62.92;35.00;;;5.00;72.00;;;;;;4933157;29;20012;-79
2020/12/01 15:49:32;;;;;;;66.40;34.35;;;5.10;71.90;;;;;;4931422;29;20072;-79
2020/12/01 15:52:39;;;;;;;70.13;34.15;;;5.10;71.70;;;;;;4936093;29;20024;-79
2020/12/01 15:55:27;;;;;;;63.20;34.05;;;5.10;71.80;;;;;;4946118;29;20047;-79
2020/12/01 15:58:34;;;;;;;73.07;35.40;;;5.10;71.90;;;;;;4892381;29;20051;-79
2020/12/01 16:01:10;;;;;;;66.38;34.63;;;5.00;72.00;;;;;;4856686;29;20069;-79
2020/12/01 16:04:15;;;;;;;66.30;34.90;;;5.00;72.00;;;;;;4850898;29;20025;-79
2020/12/01 16:06:52;;;;;;;73.82;35.85;;;5.00;72.40;;;;;;4856118;29;20054;-79
2020/12/01 16:09:33;;;;;;;67.57;36.67;;;4.90;72.70;;;;;;4847607;29;20022;-80
2020/12/01 16:12:25;;;;;;;69.68;34.42;;;4.90;72.50;;;;;;4845964;29;20030;-79
2020/12/01 16:15:39;;;;;;;76.07;38.25;;;4.70;73.20;;;;;;4846931;29;20022;-79
2020/12/01 16:18:16;;;;;;;74.15;36.22;;;4.70;73.40;;;;;;4754854;30;20047;-79
2020/12/01 16:21:19;;;;;;;69.07;36.88;;;4.70;73.50;;;;;;4766474;30;20169;-79
2020/12/01 16:23:50;;;;;;;67.85;34.35;;;4.60;73.90;;;;;;4713356;30;20055;-79
2020/12/01 16:26:29;;;;;;;66.47;33.97;;;4.60;73.90;;;;;;4697468;30;20045;-79
2020/12/01 16:29:10;;;;;;;66.20;34.95;;;4.70;73.50;;;;;;4712899;30;20041;-79
2020/12/01 16:31:36;;;;;;;72.32;35.88;;;4.60;73.80;;;;;;4712829;30;20066;-79
2020/12/01 16:34:02;;;;;;;71.60;37.08;;;4.60;73.70;;;;;;4713505;30;20069;-79
2020/12/01 16:36:30;;;;;;;77.80;38.30;;;4.70;73.50;;;;;;4704152;30;20122;-79
2020/12/01 16:39:03;;;;;;;76.30;40.50;;;4.70;73.70;;;;;;4750997;30;20414;-79
2020/12/01 16:41:34;;;;;;;67.78;36.90;;;4.60;74.00;;;;;;4766126;30;20170;-79
2020/12/01 16:44:06;;;;;;;78.75;40.03;;;4.70;73.70;;;;;;4751198;30;20036;-79
2020/12/01 16:47:04;;;;;;;80.30;41.88;;;4.60;73.90;;;;;;4751606;30;20052;-79
2020/12/01 16:49:57;;;;;;;79.43;41.78;;;4.50;74.40;;;;;;4730427;30;20043;-79
2020/12/01 16:52:37;;;;;;;86.53;42.83;;;4.50;74.40;;;;;;4793411;29;20035;-78
2020/12/01 16:55:15;;;;;;;87.15;44.25;;;4.50;74.50;;;;;;4804164;29;20039;-78
2020/12/01 16:57:56;;;;;;;92.10;45.15;;;4.50;74.50;;;;;;4815474;29;20105;-79
2020/12/01 17:00:44;;;;;;;103.68;49.55;;;4.40;74.60;;;;;;4812467;29;20261;-79
2020/12/01 17:03:37;;;;;;;125.60;65.07;;;4.50;74.70;;;;;;4813000;29;20059;-79
2020/12/01 17:06:21;;;;;;;169.32;86.93;;;4.50;74.60;;;;;;4823957;29;20062;-79
2020/12/01 17:08:47;;;;;;;136.88;67.35;;;4.50;74.50;;;;;;4826376;29;20093;-80
2020/12/01 17:11:13;;;;;;;98.32;49.85;;;4.40;74.80;;;;;;4836143;29;20022;-79
2020/12/01 17:14:07;;;;;;;89.60;42.42;;;4.40;75.00;;;;;;4836146;29;20157;-78
2020/12/01 17:17:06;;;;;;;80.95;41.47;;;4.40;74.90;;;;;;4835139;29;20034;-79
2020/12/01 17:19:32;;;;;;;88.30;40.17;;;4.40;75.00;;;;;;4837250;29;20038;-79
2020/12/01 17:22:06;;;;;;;87.53;42.10;;;4.30;75.10;;;;;;4837443;29;20053;-79
2020/12/01 17:24:34;;;;;;;90.90;43.20;;;4.40;75.00;;;;;;4825779;29;20038;-78
2020/12/01 17:27:01;;;;;;;97.80;46.10;;;4.30;74.90;;;;;;4865911;29;20046;-79
2020/12/01 17:29:26;;;;;;;95.32;47.42;;;4.30;74.70;;;;;;4864921;29;20038;-79
2020/12/01 17:31:55;;;;;;;96.28;47.20;;;4.30;75.10;;;;;;4866779;29;20079;-79
2020/12/01 17:34:42;;;;;;;97.07;46.70;;;4.20;75.50;;;;;;4877851;29;20051;-79
2020/12/01 17:37:34;;;;;;;102.40;48.92;;;4.10;75.70;;;;;;4862810;29;20046;-79
2020/12/01 17:40:15;;;;;;;101.25;50.08;;;4.10;76.30;;;;;;4854286;29;20325;-79
2020/12/01 17:42:59;;;;;;;108.07;51.80;;;3.90;76.50;;;;;;4851060;29;20028;-79
2020/12/01 17:45:33;;;;;;;101.32;48.47;;;3.90;76.90;;;;;;4853784;29;20038;-79
2020/12/01 17:48:17;;;;;;;89.80;45.50;;;3.90;76.60;;;;;;4852570;29;20037;-79
2020/12/01 17:51:18;;;;;;;108.55;54.58;;;3.80;77.00;;;;;;4853608;29;20038;-79
2020/12/01 17:53:44;;;;;;;93.35;45.10;;;3.80;77.30;;;;;;4813675;29;20039;-78
2020/12/01 17:56:10;;;;;;;96.07;47.92;;;3.90;76.80;;;;;;4781853;29;20736;-78
2020/12/01 17:58:37;;;;;;;105.63;48.67;;;3.70;77.30;;;;;;4814116;29;20050;-79
2020/12/01 18:01:06;;;;;;;115.35;54.83;;;3.80;77.00;;;;;;4813590;29;20056;-79
2020/12/01 18:03:32;;;;;;;118.38;54.40;;;3.80;76.90;;;;;;4816582;29;20031;-79
2020/12/01 18:05:57;;;;;;;120.45;52.60;;;3.70;77.30;;;;;;4801117;30;20455;-79
2020/12/01 18:08:27;;;;;;;105.97;50.13;;;3.70;77.50;;;;;;4801801;30;20079;-79
2020/12/01 18:11:07;;;;;;;126.38;54.60;;;3.70;77.60;;;;;;4814091;29;20141;-78
2020/12/01 18:13:43;;;;;;;107.28;49.25;;;3.60;78.30;;;;;;4808750;29;20152;-72
2020/12/01 18:18:59;;;;;;;120.22;52.63;;;3.50;78.20;;;;;;5166593;23;20060;-73
2020/12/01 18:21:32;;;;;;;117.13;51.22;;;3.50;78.20;;;;;;4918772;29;20028;-73
2020/12/01 18:24:32;;;;;;;145.27;61.00;;;3.60;78.00;;;;;;4931316;29;20056;-73
2020/12/01 18:27:16;;;;;;;120.15;53.88;;;3.50;78.00;;;;;;4929367;29;20071;-72
2020/12/01 18:29:57;;;;;;;125.18;56.97;;;3.60;77.70;;;;;;4929886;29;20024;-74
2020/12/01 18:32:49;;;;;;;105.13;49.50;;;3.50;77.80;;;;;;4936114;29;20369;-73
2020/12/01 18:35:20;;;;;;;103.45;48.92;;;3.60;77.60;;;;;;4932389;29;20106;-72
2020/12/01 18:37:50;;;;;;;112.47;51.88;;;3.50;77.50;;;;;;4923126;29;20032;-72
2020/12/01 18:40:22;;;;;;;118.63;54.65;;;3.50;77.40;;;;;;4920076;29;20195;-74
2020/12/01 18:42:59;;;;;;;114.22;52.70;;;3.50;77.50;;;;;;4938676;29;20050;-74
2020/12/01 18:45:32;;;;;;;106.05;50.08;;;3.50;77.50;;;;;;4935627;29;20326;-74
2020/12/01 18:47:59;;;;;;;130.05;57.55;;;3.50;77.50;;;;;;4932816;29;20067;-75
2020/12/01 18:50:26;;;;;;;115.72;53.92;;;3.50;77.60;;;;;;4932489;29;20054;-75
2020/12/01 18:53:07;;;;;;;138.75;59.92;;;3.40;77.60;;;;;;4928440;29;20020;-86
2020/12/01 18:55:32;;;;;;;113.63;52.67;;;3.40;77.80;;;;;;4920865;29;20024;-85
2020/12/01 18:57:58;;;;;;;116.43;52.92;;;3.40;77.70;;;;;;4928664;29;20043;-86
2020/12/01 19:00:24;;;;;;;118.60;54.97;;;3.40;77.90;;;;;;4930341;29;20096;-85
2020/12/01 19:02:50;;;;;;;109.13;51.13;;;3.40;77.70;;;;;;4925286;29;20024;-86
2020/12/01 19:05:15;;;;;;;108.95;50.20;;;3.40;77.80;;;;;;4927951;29;20103;-86
2020/12/01 19:07:41;;;;;;;111.28;52.75;;;3.40;77.60;;;;;;4926142;29;20024;-85
2020/12/01 19:10:10;;;;;;;108.47;50.53;;;3.20;78.40;;;;;;4930670;29;20016;-85
2020/12/01 19:12:36;;;;;;;107.82;51.30;;;3.20;78.70;;;;;;4922797;29;20020;-85
2020/12/01 19:15:05;;;;;;;102.30;49.47;;;3.20;78.80;;;;;;4935599;29;20027;-83
2020/12/01 19:17:31;;;;;;;124.80;58.38;;;3.20;79.20;;;;;;4930688;29;20047;-84
2020/12/01 19:19:57;;;;;;;115.25;53.20;;;3.30;78.50;;;;;;4919701;29;20070;-84
2020/12/01 19:22:24;;;;;;;99.70;49.00;;;3.20;78.60;;;;;;4929114;29;20307;-83
2020/12/01 19:24:49;;;;;;;;;;;3.10;79.10;;;;;;4938683;29;20052;-84
2020/12/01 19:27:15;;;;;;;107.27;48.00;;;3.00;79.80;;;;;;4918549;29;19907;-83
2020/12/01 19:29:41;;;;;;;108.00;47.25;;;3.10;79.70;;;;;;4935852;29;20027;-83
2020/12/01 19:32:06;;;;;;;105.47;46.97;;;3.00;79.70;;;;;;4938300;29;20253;-84
2020/12/01 19:34:32;;;;;;;116.78;52.90;;;3.10;79.60;;;;;;4925750;29;20094;-84
2020/12/01 19:36:58;;;;;;;104.93;49.45;;;3.20;79.70;;;;;;4918578;29;20020;-84
2020/12/01 19:39:25;;;;;;;101.55;46.25;;;3.20;78.70;;;;;;4923828;29;20022;-83
2020/12/01 19:41:52;;;;;;;;;;;3.30;78.40;;;;;;4923865;29;20020;-84
2020/12/01 19:44:19;;;;;;;102.22;45.10;;;3.20;78.70;;;;;;4925151;29;19946;-84
2020/12/01 19:46:46;;;;;;;;;;;3.20;78.60;;;;;;4925450;29;20028;-84
2020/12/01 19:49:11;;;;;;;111.88;49.63;;;3.20;78.70;;;;;;4922936;29;19903;-83
2020/12/01 19:51:37;;;;;;;130.32;56.58;;;3.20;78.50;;;;;;4927119;29;20072;-84
2020/12/01 19:54:03;;;;;;;132.88;55.60;;;3.20;78.30;;;;;;4931366;29;20079;-84
2020/12/01 19:56:29;;;;;;;111.15;53.60;;;3.20;78.40;;;;;;4924502;29;20196;-84
2020/12/01 19:58:54;;;;;;;124.43;57.33;;;3.20;78.20;;;;;;4951739;29;20047;-84
2020/12/01 20:01:21;;;;;;;131.88;57.80;;;3.20;78.20;;;;;;4949529;29;20023;-84
2020/12/01 20:03:48;;;;;;;143.30;64.50;;;3.30;78.20;;;;;;4922213;29;20023;-84
2020/12/01 20:06:14;;;;;;;125.97;56.58;;;3.20;77.90;;;;;;4924940;29;20042;-84
2020/12/01 20:08:42;;;;;;;117.75;52.75;;;3.30;77.80;;;;;;4931589;29;20039;-84
2020/12/01 20:11:11;;;;;;;132.43;57.17;;;3.20;77.90;;;;;;4951997;29;20123;-83
2020/12/01 20:13:39;;;;;;;125.25;54.42;;;3.10;78.10;;;;;;4934290;29;20027;-84
2020/12/01 20:16:06;;;;;;;116.13;51.85;;;3.10;78.20;;;;;;4925283;29;20034;-84
2020/12/01 20:18:32;;;;;;;111.53;50.58;;;3.10;78.00;;;;;;4926101;29;20059;-84
2020/12/01 20:21:01;;;;;;;110.05;48.92;;;3.20;77.60;;;;;;4927427;29;20024;-84
2020/12/01 20:23:27;;;;;;;112.15;50.15;;;3.20;77.30;;;;;;4934562;29;20031;-84
2020/12/01 20:25:58;;;;;;;115.00;49.97;;;3.20;76.90;;;;;;4935021;29;20122;-84
2020/12/01 20:28:24;;;;;;;109.68;49.40;;;3.20;76.90;;;;;;4946540;29;20260;-85
2020/12/01 20:30:51;;;;;;;114.90;49.88;;;3.20;76.80;;;;;;4927659;29;20071;-84
2020/12/01 20:33:21;;;;;;;106.50;49.53;;;3.20;76.70;;;;;;4935272;29;20048;-85